createdAt,value
2019-05-06T00:00:26.812Z,5.80
2019-05-06T00:02:56.547Z,5.80
2019-05-06T00:05:26.088Z,5.60
2019-05-06T00:07:55.681Z,5.60
2019-05-06T00:10:27.543Z,5.60
2019-05-06T00:12:57.610Z,5.80
2019-05-06T00:15:27.857Z,5.80
2019-05-06T00:17:57.625Z,5.70
2019-05-06T00:20:27.311Z,5.80
2019-05-06T00:23:04.101Z,5.80
2019-05-06T00:25:53.427Z,5.90
2019-05-06T00:28:37.372Z,5.90
2019-05-06T00:31:13.153Z,5.80
2019-05-06T00:33:40.063Z,5.60
2019-05-06T00:36:09.601Z,5.60
2019-05-06T00:38:40.612Z,5.50
2019-05-06T00:41:14.440Z,5.50
2019-05-06T00:43:44.026Z,5.30
2019-05-06T00:46:13.904Z,5.30
2019-05-06T00:48:44.884Z,5.40
2019-05-06T00:51:14.540Z,5.40
2019-05-06T00:53:48.140Z,5.40
2019-05-06T00:56:17.740Z,5.40
2019-05-06T00:58:47.276Z,5.40
2019-05-06T01:01:26.365Z,5.60
2019-05-06T01:03:48.172Z,5.70
2019-05-06T01:06:17.766Z,5.80
2019-05-06T01:08:47.281Z,5.80
2019-05-06T01:11:17.799Z,5.90
2019-05-06T01:13:56.273Z,6.00
2019-05-06T01:16:26.446Z,6.00
2019-05-06T01:18:57.453Z,5.90
2019-05-06T01:21:28.386Z,5.80
2019-05-06T01:23:58.522Z,5.60
2019-05-06T01:26:29.669Z,5.70
2019-05-06T01:29:00.550Z,5.90
2019-05-06T01:31:42.274Z,6.00
2019-05-06T01:34:04.110Z,6.10
2019-05-06T01:36:34.364Z,6.20
2019-05-06T01:39:19.555Z,6.20
2019-05-06T01:42:07.153Z,6.30
2019-05-06T01:44:36.700Z,6.30
2019-05-06T01:47:06.300Z,6.20
2019-05-06T01:49:35.857Z,6.20
2019-05-06T01:52:05.623Z,6.20
2019-05-06T01:54:35.175Z,6.10
2019-05-06T01:57:04.777Z,6.20
2019-05-06T01:59:35.373Z,6.10
2019-05-06T02:02:05.644Z,6.00
2019-05-06T02:04:35.297Z,6.00
2019-05-06T02:07:04.901Z,6.00
2019-05-06T02:09:34.475Z,5.90
2019-05-06T02:12:04.809Z,5.80
2019-05-06T02:14:34.468Z,5.70
2019-05-06T02:17:04.019Z,5.60
2019-05-06T02:19:34.757Z,5.60
2019-05-06T02:22:13.677Z,5.50
2019-05-06T02:24:49.982Z,5.40
2019-05-06T02:27:19.504Z,5.40
2019-05-06T02:29:54.618Z,5.40
2019-05-06T02:32:36.800Z,5.40
2019-05-06T02:35:21.804Z,5.40
2019-05-06T02:37:51.366Z,5.10
2019-05-06T02:40:25.180Z,5.10
2019-05-06T02:42:55.370Z,5.00
2019-05-06T02:45:25.200Z,5.00
2019-05-06T02:48:10.272Z,4.80
2019-05-06T02:51:03.713Z,4.70
2019-05-06T02:53:33.616Z,4.60
2019-05-06T02:56:04.334Z,4.60
2019-05-06T02:58:35.756Z,4.60
2019-05-06T03:01:06.111Z,4.40
2019-05-06T03:03:37.287Z,4.50
2019-05-06T03:06:07.079Z,4.40
2019-05-06T03:08:36.621Z,4.30
2019-05-06T03:11:06.165Z,4.20
2019-05-06T03:13:35.943Z,4.30
2019-05-06T03:16:06.038Z,4.20
2019-05-06T03:18:35.752Z,4.20
2019-05-06T03:21:37.117Z,4.00
2019-05-06T03:24:24.990Z,3.90
2019-05-06T03:26:56.821Z,3.70
2019-05-06T03:29:27.409Z,3.70
2019-05-06T03:31:57.576Z,3.70
2019-05-06T03:34:49.311Z,3.70
2019-05-06T03:36:58.485Z,3.70
2019-05-06T03:39:28.115Z,3.60
2019-05-06T03:41:57.660Z,3.70
2019-05-06T03:44:27.226Z,3.70
2019-05-06T03:47:14.899Z,3.80
2019-05-06T03:49:49.970Z,3.80
2019-05-06T03:52:18.394Z,3.80
2019-05-06T03:54:48.284Z,3.70
2019-05-06T03:57:18.666Z,3.70
2019-05-06T03:59:52.662Z,3.70
2019-05-06T04:02:24.045Z,3.70
2019-05-06T04:04:56.394Z,3.80
2019-05-06T04:07:25.481Z,3.80
2019-05-06T04:09:55.093Z,3.90
2019-05-06T04:12:26.721Z,4.00
2019-05-06T04:14:56.369Z,3.80
2019-05-06T04:17:43.981Z,3.80
2019-05-06T04:20:23.770Z,3.90
2019-05-06T04:23:24.925Z,4.00
2019-05-06T04:26:07.805Z,4.10
2019-05-06T04:28:37.584Z,4.00
2019-05-06T04:31:07.901Z,4.00
2019-05-06T04:33:37.649Z,4.10
2019-05-06T04:36:08.326Z,4.10
2019-05-06T04:38:39.029Z,4.20
2019-05-06T04:41:08.662Z,4.30
2019-05-06T04:43:38.660Z,4.40
2019-05-06T04:46:08.214Z,4.40
2019-05-06T04:48:38.108Z,4.60
2019-05-06T04:51:08.026Z,4.60
2019-05-06T04:59:23.534Z,5.30
2019-05-06T05:01:53.653Z,5.40
2019-05-06T05:04:31.727Z,5.60
2019-05-06T05:06:54.709Z,5.70
2019-05-06T05:09:24.281Z,5.60
2019-05-06T05:12:10.027Z,5.70
2019-05-06T05:15:17.591Z,5.80
2019-05-06T05:18:12.893Z,6.00
2019-05-06T05:20:46.529Z,6.00
2019-05-06T05:23:14.027Z,6.10
2019-05-06T05:25:44.759Z,6.10
2019-05-06T05:28:14.712Z,6.10
2019-05-06T05:30:44.421Z,6.20
2019-05-06T05:33:13.981Z,6.30
2019-05-06T05:35:43.618Z,6.30
2019-05-06T05:38:13.646Z,6.40
2019-05-06T05:40:43.447Z,6.60
2019-05-06T05:43:19.728Z,6.60
2019-05-06T05:45:49.449Z,6.60
2019-05-06T05:48:28.534Z,6.60
2019-05-06T05:50:58.175Z,6.70
2019-05-06T05:53:28.368Z,6.70
2019-05-06T05:55:57.962Z,6.90
2019-05-06T05:58:27.610Z,6.80
2019-05-06T06:00:57.135Z,7.00
2019-05-06T06:03:26.691Z,7.10
2019-05-06T06:05:56.209Z,6.90
2019-05-06T06:08:25.848Z,7.00
2019-05-06T06:11:04.312Z,7.10
2019-05-06T06:13:34.040Z,7.00
2019-05-06T06:16:16.349Z,7.00
2019-05-06T06:18:56.824Z,7.10
2019-05-06T06:21:42.786Z,7.20
2019-05-06T06:24:22.473Z,7.40
2019-05-06T06:26:52.201Z,7.40
2019-05-06T06:29:22.763Z,7.50
2019-05-06T06:32:13.553Z,7.60
2019-05-06T06:35:10.136Z,7.90
2019-05-06T06:37:38.681Z,7.90
2019-05-06T06:40:09.504Z,7.90
2019-05-06T06:42:39.053Z,7.90
2019-05-06T06:45:09.105Z,7.70
2019-05-06T06:47:39.991Z,7.60
2019-05-06T06:50:09.667Z,7.80
2019-05-06T06:52:39.279Z,7.80
2019-05-06T06:55:08.975Z,8.10
2019-05-06T06:57:47.062Z,8.10
2019-05-06T07:00:33.587Z,8.10
2019-05-06T07:03:16.464Z,8.10
2019-05-06T07:06:05.909Z,8.30
2019-05-06T07:08:37.661Z,8.50
2019-05-06T07:11:06.740Z,8.60
2019-05-06T07:13:37.876Z,8.30
2019-05-06T07:16:07.414Z,8.40
2019-05-06T07:18:36.970Z,8.50
2019-05-06T07:21:18.845Z,8.50
2019-05-06T07:23:48.379Z,8.60
2019-05-06T07:26:19.976Z,8.60
2019-05-06T07:28:49.517Z,9.00
2019-05-06T07:31:23.694Z,8.80
2019-05-06T07:33:52.215Z,8.80
2019-05-06T07:36:22.849Z,9.00
2019-05-06T07:38:53.113Z,9.10
2019-05-06T07:41:32.826Z,9.10
2019-05-06T07:44:13.062Z,9.20
2019-05-06T07:46:47.997Z,9.40
2019-05-06T07:49:17.705Z,9.30
2019-05-06T07:51:48.342Z,9.10
2019-05-06T07:54:17.923Z,9.20
2019-05-06T07:56:47.815Z,9.40
2019-05-06T07:59:19.170Z,9.60
2019-05-06T08:01:50.227Z,9.80
2019-05-06T08:04:19.728Z,10.00
2019-05-06T08:06:49.339Z,9.90
2019-05-06T08:09:18.905Z,9.70
2019-05-06T08:11:48.440Z,9.90
2019-05-06T08:14:17.976Z,10.40
2019-05-06T08:17:03.832Z,10.70
2019-05-06T08:19:33.787Z,10.60
2019-05-06T08:22:06.975Z,10.70
2019-05-06T08:24:36.621Z,10.60
2019-05-06T08:27:06.317Z,10.40
2019-05-06T08:29:35.893Z,10.60
2019-05-06T08:32:05.529Z,10.90
2019-05-06T08:34:35.165Z,11.10
2019-05-06T08:37:12.090Z,11.20
2019-05-06T08:39:46.163Z,10.90
2019-05-06T08:42:15.633Z,10.70
2019-05-06T08:44:45.188Z,10.50
2019-05-06T08:47:14.717Z,10.70
2019-05-06T08:50:08.271Z,10.60
2019-05-06T08:52:55.934Z,10.90
2019-05-06T08:55:28.770Z,11.00
2019-05-06T08:57:58.371Z,11.00
2019-05-06T09:00:28.273Z,11.40
2019-05-06T09:02:57.831Z,11.60
2019-05-06T09:05:27.368Z,11.20
2019-05-06T09:07:57.868Z,11.50
2019-05-06T09:10:27.496Z,11.60
2019-05-06T09:12:57.101Z,11.70
2019-05-06T09:15:26.668Z,11.50
2019-05-06T09:17:56.246Z,11.30
2019-05-06T09:20:25.839Z,11.20
2019-05-06T09:22:55.388Z,11.40
2019-05-06T09:25:24.957Z,11.80
2019-05-06T09:28:13.223Z,11.80
2019-05-06T09:30:57.212Z,11.60
2019-05-06T09:33:33.125Z,11.40
2019-05-06T09:36:03.375Z,11.40
2019-05-06T09:38:33.115Z,11.40
2019-05-06T09:41:05.048Z,11.20
2019-05-06T09:43:34.829Z,11.10
2019-05-06T09:46:04.461Z,11.20
2019-05-06T09:48:52.792Z,11.30
2019-05-06T09:51:22.572Z,11.40
2019-05-06T09:54:07.024Z,11.30
2019-05-06T09:56:42.757Z,11.50
2019-05-06T09:59:12.906Z,11.40
2019-05-06T10:01:43.772Z,11.80
2019-05-06T10:04:14.808Z,12.40
2019-05-06T10:06:56.330Z,12.20
2019-05-06T10:09:16.586Z,12.10
2019-05-06T10:11:46.397Z,11.90
2019-05-06T10:14:16.155Z,11.90
2019-05-06T10:16:45.789Z,11.80
2019-05-06T10:19:15.497Z,11.90
2019-05-06T10:21:45.185Z,12.00
2019-05-06T10:24:14.712Z,12.10
2019-05-06T10:26:49.330Z,11.90
2019-05-06T10:29:36.063Z,12.00
2019-05-06T10:32:22.338Z,11.80
2019-05-06T10:34:52.665Z,11.90
2019-05-06T10:37:42.266Z,11.90
2019-05-06T10:40:18.382Z,12.00
2019-05-06T10:42:53.705Z,12.30
2019-05-06T10:45:28.409Z,12.20
2019-05-06T10:47:58.201Z,11.90
2019-05-06T10:50:30.668Z,12.30
2019-05-06T10:53:15.862Z,12.90
2019-05-06T10:55:49.717Z,13.10
2019-05-06T11:01:17.553Z,13.70
2019-05-06T11:03:47.109Z,14.20
2019-05-06T11:06:16.849Z,14.10
2019-05-06T11:08:46.389Z,14.40
2019-05-06T11:11:30.817Z,14.00
2019-05-06T11:13:47.367Z,13.50
2019-05-06T11:16:17.148Z,13.00
2019-05-06T11:18:46.829Z,12.80
2019-05-06T11:21:16.425Z,12.70
2019-05-06T11:23:46.057Z,12.50
2019-05-06T11:26:15.798Z,12.40
2019-05-06T11:28:52.193Z,12.40
2019-05-06T11:31:30.034Z,12.40
2019-05-06T11:34:18.071Z,12.40
2019-05-06T11:37:12.064Z,12.70
2019-05-06T11:39:43.064Z,13.20
2019-05-06T11:42:25.063Z,13.80
2019-05-06T11:44:44.345Z,14.10
2019-05-06T11:47:14.041Z,14.40
2019-05-06T11:49:44.255Z,14.50
2019-05-06T11:52:14.053Z,14.40
2019-05-06T11:54:43.628Z,14.70
2019-05-06T11:57:13.364Z,14.80
2019-05-06T11:59:43.431Z,14.40
2019-05-06T12:02:16.732Z,14.00
2019-05-06T12:04:46.353Z,13.60
2019-05-06T12:07:16.335Z,13.40
2019-05-06T12:09:48.272Z,13.40
2019-05-06T12:12:17.981Z,13.40
2019-05-06T12:14:47.568Z,13.60
2019-05-06T12:17:17.169Z,13.60
2019-05-06T12:19:46.772Z,13.70
2019-05-06T12:22:16.364Z,13.80
2019-05-06T12:24:45.984Z,14.00
2019-05-06T12:27:34.840Z,13.90
2019-05-06T12:30:05.589Z,13.80
2019-05-06T12:32:43.306Z,13.60
2019-05-06T12:35:13.345Z,13.80
2019-05-06T12:37:44.698Z,14.60
2019-05-06T12:40:14.609Z,15.20
2019-05-06T12:42:53.259Z,15.10
2019-05-06T12:45:27.381Z,14.40
2019-05-06T12:47:59.733Z,14.40
2019-05-06T12:50:29.419Z,14.80
2019-05-06T12:52:59.041Z,14.70
2019-05-06T12:55:28.656Z,14.40
2019-05-06T12:57:58.439Z,14.40
2019-05-06T13:00:30.182Z,14.50
2019-05-06T13:03:02.100Z,14.40
2019-05-06T13:05:31.974Z,14.20
2019-05-06T13:08:05.482Z,14.30
2019-05-06T13:10:33.644Z,14.60
2019-05-06T13:13:04.680Z,14.80
2019-05-06T13:15:34.333Z,14.80
2019-05-06T13:18:07.145Z,14.70
2019-05-06T13:20:36.826Z,14.70
2019-05-06T13:23:34.653Z,15.20
2019-05-06T13:26:02.191Z,15.20
2019-05-06T13:28:34.291Z,15.50
2019-05-06T13:31:15.849Z,15.80
2019-05-06T13:33:55.337Z,16.10
2019-05-06T13:36:25.093Z,16.30
2019-05-06T13:39:09.516Z,16.30
2019-05-06T13:41:26.197Z,15.90
2019-05-06T13:44:14.957Z,15.40
2019-05-06T13:46:49.750Z,15.10
2019-05-06T13:49:47.585Z,15.00
2019-05-06T13:52:29.343Z,15.50
2019-05-06T13:54:59.246Z,15.40
2019-05-06T13:57:29.221Z,15.30
2019-05-06T13:59:59.150Z,14.70
2019-05-06T14:02:43.440Z,14.60
2019-05-06T14:05:12.533Z,14.70
2019-05-06T14:07:43.276Z,14.80
2019-05-06T14:10:13.394Z,14.70
2019-05-06T14:12:43.056Z,14.70
2019-05-06T14:15:13.542Z,14.30
2019-05-06T14:17:43.173Z,14.90
2019-05-06T14:20:13.031Z,15.70
2019-05-06T14:22:43.835Z,15.90
2019-05-06T14:25:39.522Z,16.20
2019-05-06T14:28:24.017Z,17.40
2019-05-06T14:31:02.742Z,17.00
2019-05-06T14:33:32.741Z,16.50
2019-05-06T14:36:03.230Z,16.30
2019-05-06T14:38:33.146Z,15.50
2019-05-06T14:41:09.069Z,15.30
2019-05-06T14:43:38.648Z,14.60
2019-05-06T14:46:08.175Z,14.40
2019-05-06T14:48:37.764Z,14.10
2019-05-06T14:51:07.384Z,14.00
2019-05-06T14:53:37.063Z,13.90
2019-05-06T14:56:15.556Z,13.80
2019-05-06T14:59:03.342Z,13.90
2019-05-06T15:01:34.315Z,13.70
2019-05-06T15:04:04.330Z,13.90
2019-05-06T15:06:33.995Z,13.80
2019-05-06T15:09:05.911Z,14.00
2019-05-06T15:11:35.652Z,14.00
2019-05-06T15:14:05.582Z,13.80
2019-05-06T15:16:35.116Z,13.60
2019-05-06T15:19:05.164Z,13.30
2019-05-06T15:21:38.547Z,13.10
2019-05-06T15:24:07.181Z,13.20
2019-05-06T15:26:36.769Z,13.10
2019-05-06T15:29:06.304Z,13.00
2019-05-06T15:31:45.641Z,12.90
2019-05-06T15:34:18.016Z,12.90
2019-05-06T15:37:06.945Z,13.00
2019-05-06T15:39:36.538Z,12.70
2019-05-06T15:42:06.101Z,12.60
2019-05-06T15:44:35.698Z,12.30
2019-05-06T15:47:05.249Z,12.10
2019-05-06T15:49:34.773Z,12.20
2019-05-06T15:52:04.308Z,12.30
2019-05-06T15:54:33.873Z,12.20
2019-05-06T15:57:03.474Z,12.20
2019-05-06T15:59:33.625Z,12.40
2019-05-06T16:02:03.380Z,12.60
2019-05-06T16:04:32.968Z,12.50
2019-05-06T16:07:02.970Z,12.50
2019-05-06T16:09:33.021Z,12.20
2019-05-06T16:12:03.201Z,12.10
2019-05-06T16:14:34.801Z,12.10
2019-05-06T16:17:04.155Z,11.80
2019-05-06T16:19:34.684Z,11.80
2019-05-06T16:22:04.335Z,11.70
2019-05-06T16:24:39.868Z,11.70
2019-05-06T16:27:12.420Z,11.70
2019-05-06T16:29:42.835Z,11.70
2019-05-06T16:32:12.803Z,11.60
2019-05-06T16:34:43.047Z,11.50
2019-05-06T16:37:12.816Z,11.60
2019-05-06T16:39:42.437Z,11.40
2019-05-06T16:42:12.918Z,11.40
2019-05-06T16:44:45.096Z,11.40
2019-05-06T16:47:33.114Z,11.40
2019-05-06T16:50:02.688Z,11.40
2019-05-06T16:52:33.671Z,11.40
2019-05-06T16:55:03.684Z,11.40
2019-05-06T16:57:33.393Z,11.30
2019-05-06T17:06:05.381Z,11.10
2019-05-06T17:08:36.551Z,11.00
2019-05-06T17:11:06.452Z,11.00
2019-05-06T17:13:37.841Z,11.00
2019-05-06T17:16:08.442Z,11.00
2019-05-06T17:18:38.246Z,11.00
2019-05-06T17:21:07.976Z,10.90
2019-05-06T17:23:37.519Z,10.90
2019-05-06T17:26:07.075Z,11.00
2019-05-06T17:28:52.068Z,11.00
2019-05-06T17:31:32.307Z,11.10
2019-05-06T17:34:02.618Z,11.10
2019-05-06T17:36:33.372Z,11.40
2019-05-06T17:39:04.577Z,11.50
2019-05-06T17:41:44.510Z,11.40
2019-05-06T17:44:05.815Z,11.30
2019-05-06T17:46:42.687Z,11.10
2019-05-06T17:49:15.594Z,11.00
2019-05-06T17:52:13.448Z,11.00
2019-05-06T17:54:43.152Z,10.80
2019-05-06T17:57:12.788Z,10.60
2019-05-06T17:59:42.324Z,10.40
2019-05-06T18:02:15.070Z,10.30
2019-05-06T18:04:44.677Z,10.20
2019-05-06T18:07:14.236Z,10.20
2019-05-06T18:09:43.781Z,10.20
2019-05-06T18:12:14.923Z,10.10
2019-05-06T18:14:44.485Z,10.00
2019-05-06T18:17:14.070Z,9.80
2019-05-06T18:19:43.625Z,9.90
2019-05-06T18:22:13.311Z,10.00
2019-05-06T18:24:42.901Z,9.90
2019-05-06T18:27:13.071Z,9.80
2019-05-06T18:29:44.058Z,9.80
2019-05-06T18:32:13.596Z,9.70
2019-05-06T18:34:43.152Z,9.70
2019-05-06T18:37:12.920Z,9.70
2019-05-06T18:39:42.707Z,9.70
2019-05-06T18:42:18.950Z,9.60
2019-05-06T18:44:43.572Z,9.60
2019-05-06T18:47:13.153Z,9.50
2019-05-06T18:49:42.926Z,9.50
2019-05-06T18:52:13.419Z,9.40
2019-05-06T18:54:43.176Z,9.40
2019-05-06T18:57:13.128Z,9.20
2019-05-06T18:59:42.836Z,9.10
2019-05-06T19:02:13.180Z,9.10
2019-05-06T19:04:52.263Z,9.00
2019-05-06T19:07:22.224Z,9.00
2019-05-06T19:09:56.653Z,9.00
2019-05-06T19:12:31.866Z,8.90
2019-05-06T19:14:57.553Z,8.90
2019-05-06T19:17:27.076Z,8.80
2019-05-06T19:19:56.641Z,8.70
2019-05-06T19:22:26.192Z,8.70
2019-05-06T19:24:55.752Z,8.70
2019-05-06T19:27:25.322Z,8.60
2019-05-06T19:29:55.858Z,8.50
2019-05-06T19:32:25.471Z,8.50
2019-05-06T19:34:55.036Z,8.40
2019-05-06T19:37:24.606Z,8.40
2019-05-06T19:39:54.172Z,8.30
2019-05-06T19:42:23.812Z,8.40
2019-05-06T19:44:53.348Z,8.50
2019-05-06T19:47:22.921Z,8.50
2019-05-06T19:49:53.195Z,8.40
2019-05-06T19:52:26.273Z,8.30
2019-05-06T19:54:55.827Z,8.30
2019-05-06T19:57:25.406Z,8.30
2019-05-06T19:59:54.956Z,8.30
2019-05-06T20:02:25.775Z,8.30
2019-05-06T20:05:03.107Z,8.30
2019-05-06T20:07:59.881Z,8.10
2019-05-06T20:10:48.566Z,8.00
2019-05-06T20:13:20.680Z,7.90
2019-05-06T20:15:49.320Z,7.90
2019-05-06T20:18:18.907Z,7.90
2019-05-06T20:20:48.438Z,7.90
2019-05-06T20:23:18.025Z,8.00
2019-05-06T20:25:47.580Z,7.90
2019-05-06T20:28:17.126Z,7.80
2019-05-06T20:30:46.711Z,7.90
2019-05-06T20:33:16.375Z,7.80
2019-05-06T20:35:45.940Z,7.80
2019-05-06T20:38:15.583Z,7.90
2019-05-06T20:40:45.259Z,7.90
2019-05-06T20:43:20.408Z,7.90
2019-05-06T20:45:46.205Z,7.80
2019-05-06T20:48:15.871Z,7.80
2019-05-06T20:50:45.573Z,7.90
2019-05-06T20:53:15.194Z,7.90
2019-05-06T20:55:44.765Z,7.90
2019-05-06T20:58:14.345Z,7.90
2019-05-06T21:00:43.872Z,7.80
2019-05-06T21:03:13.455Z,7.90
2019-05-06T21:05:43.655Z,8.00
2019-05-06T21:08:13.397Z,8.00
2019-05-06T21:10:43.444Z,8.00
2019-05-06T21:13:13.442Z,8.00
2019-05-06T21:15:44.277Z,7.90
2019-05-06T21:18:13.817Z,7.80
2019-05-06T21:20:43.728Z,7.90
2019-05-06T21:23:13.325Z,7.70
2019-05-06T21:25:43.279Z,7.70
2019-05-06T21:28:14.168Z,7.70
2019-05-06T21:30:43.747Z,7.70
2019-05-06T21:33:13.318Z,7.70
2019-05-06T21:35:43.010Z,7.70
2019-05-06T21:38:12.556Z,7.60
2019-05-06T21:40:43.373Z,7.40
2019-05-06T21:43:14.153Z,7.50
2019-05-06T21:45:43.680Z,7.50
2019-05-06T21:48:13.728Z,7.50
2019-05-06T21:50:44.353Z,7.50
2019-05-06T21:53:14.666Z,7.40
2019-05-06T21:55:44.487Z,7.30
2019-05-06T21:58:14.057Z,7.30
2019-05-06T22:01:03.232Z,7.40
2019-05-06T22:03:34.587Z,7.40
2019-05-06T22:06:04.371Z,7.40
2019-05-06T22:08:33.959Z,7.40
2019-05-06T22:11:03.589Z,7.40
2019-05-06T22:13:33.488Z,7.30
2019-05-06T22:16:04.785Z,7.30
2019-05-06T22:18:34.650Z,7.30
2019-05-06T22:21:12.477Z,7.40
2019-05-06T22:23:55.401Z,7.40
2019-05-06T22:26:25.229Z,7.30
2019-05-06T22:28:55.094Z,7.40
2019-05-06T22:31:25.219Z,7.40
2019-05-06T22:33:55.131Z,7.50
2019-05-06T22:36:24.832Z,7.40
2019-05-06T22:38:55.452Z,7.50
2019-05-06T22:41:25.410Z,7.50
2019-05-06T22:43:55.266Z,7.50
2019-05-06T22:46:24.784Z,7.50
2019-05-06T22:48:54.732Z,7.50
2019-05-06T22:51:24.433Z,7.50
2019-05-06T22:53:53.956Z,7.50
2019-05-06T22:56:23.691Z,7.40
2019-05-06T22:58:53.317Z,7.50
2019-05-06T23:01:38.223Z,7.60
2019-05-06T23:06:42.528Z,7.60
2019-05-06T23:09:12.122Z,7.70
2019-05-06T23:11:42.446Z,7.80
2019-05-06T23:14:13.812Z,7.80
2019-05-06T23:16:43.331Z,7.90
2019-05-06T23:19:12.876Z,7.80
2019-05-06T23:21:43.041Z,7.90
2019-05-06T23:24:13.253Z,7.80
2019-05-06T23:26:42.973Z,7.90
2019-05-06T23:29:13.052Z,7.90
2019-05-06T23:31:43.732Z,7.80
2019-05-06T23:34:13.278Z,7.80
2019-05-06T23:37:23.423Z,7.90
2019-05-06T23:40:38.152Z,8.00
2019-05-06T23:43:43.876Z,7.90
2019-05-06T23:46:49.805Z,7.80
2019-05-06T23:49:55.872Z,7.70
2019-05-06T23:53:02.971Z,7.70
2019-05-06T23:56:10.271Z,7.70
2019-05-06T23:58:39.839Z,7.70
